EGMD

Lydd Airport

Lydd, Ashford, United Kingdom
METAR EGMD 201950Z AUTO 23010KT 9999 NCD 19/18 Q1020
Observed Flight Rules
Aug-20 @ 19:50 UTC (39 minutes ago) Visual Flight Rules
Wind Visibility Clouds
230° at 10 knots 10,000+ meters
  • Clear skies
Temperatures Readings
Current 19°C / 66°F
Dewpoint 18°C / 64°F
Humidity 94%
Altimeter 30.12" Hg
Pressure 1020 hPa
Elevation 3
METAR EGMD 201950Z AUTO 23010KT 9999 NCD 19/18 Q1020
Observed Flight Rules
Aug-20 @ 19:50 UTC
(39 minutes ago)
VFR
Wind Visibility
230° at 10 knots 10,000+ meters
Clouds
  • Clear skies
Temperature Dewpoint
19°C / 66°F 18°C / 64°F
Humidity Altimeter Pressure
94% 30.12" Hg 1020 hPa